FAOR/JNB METAR and TAF weather

Enter ICAO airport designator
Station Type Date Time Source
FAOR METAR 2020/01/21 21:00 UTC NOAA

FAOR 212100Z 20009KT 9999 FEW040TCU 17/14 Q1022 NOSIG RMK DIST CB TO W


Station Type Date Time Source
FAOR Decoded METAR 2020/01/21 21:00 UTC NOAA

Station name not available
Jan 21, 2020 - 04:00 PM EST / 2020.01.21 2100 UTC
Wind: from the SSW (200 degrees) at 10 MPH (9 KT):0
Visibility: greater than 7 mile(s):0
Sky conditions: mostly clear
Weather: Cumulonimbus clouds, towering cumulus clouds observed
Temperature: 62 F (17 C)
Dew Point: 57 F (14 C)
Relative Humidity: 82%
Pressure (altimeter): 30.18 in. Hg (1022 hPa)
ob: FAOR 212100Z 20009KT 9999 FEW040TCU 17/14 Q1022 NOSIG RMK DIST CB TO W
cycle: 21

Station Type Date Time Source
FAOR TAF 2020/01/21 18:00 UTC NOAA

TAF FAOR 211600Z 2118/2224 07010KT 9999 -SHRA SCT040 FEW040TCU TX26/2213Z TN14/2203Z PROB40
TEMPO 2118/2119 5000 TSRA FEW040CB
BECMG 2119/2121 NSW PROB40
TEMPO 2122/2205 4000 SHRA BKN010 SCT035TCU
BECMG 2200/2202 01008KT BKN010 PROB40
TEMPO 2203/2206 2000 BR -RA BKN004 PROB30
TEMPO 2204/2206 0800 FG OVC001
BECMG 2207/2209 VRB03KT BKN020
BECMG 2211/2213 34010KT SCT035 PROB30
TEMPO 2221/2224 -TSRA FEW040CB

Example: see airport list